TimeEDT,TemperatureF,Dew PointF,Humidity,Sea Level PressureIn,VisibilityMPH,Wind Direction,Wind SpeedMPH,Gust SpeedMPH,PrecipitationIn,Events,Conditions,WindDirDegrees,DateUTC
12:05 AM,63.7,61.3,92,30.05,10.0,Calm,Calm,-,N/A,,Clear,0,2013-09-05 04:05:00
12:25 AM,63.5,62.2,96,30.05,10.0,Calm,Calm,-,N/A,,Clear,0,2013-09-05 04:25:00
12:45 AM,63.7,62.2,95,30.05,10.0,Calm,Calm,-,N/A,,Clear,0,2013-09-05 04:45:00
1:05 AM,63.5,62.6,97,30.05,10.0,Calm,Calm,-,N/A,,Clear,0,2013-09-05 05:05:00
1:25 AM,63.1,62.1,96,30.05,10.0,Calm,Calm,-,N/A,,Clear,0,2013-09-05 05:25:00
1:45 AM,62.8,62.1,97,30.05,10.0,Calm,Calm,-,N/A,,Clear,0,2013-09-05 05:45:00
2:05 AM,62.2,61.9,99,30.05,10.0,Calm,Calm,-,N/A,,Clear,0,2013-09-05 06:05:00
2:25 AM,62.1,61.9,99,30.04,10.0,Calm,Calm,-,N/A,,Clear,0,2013-09-05 06:25:00
2:45 AM,61.2,61.0,99,30.04,10.0,Calm,Calm,-,N/A,,Clear,0,2013-09-05 06:45:00
3:05 AM,61.7,61.7,100,30.04,10.0,Calm,Calm,-,N/A,,Clear,0,2013-09-05 07:05:00
3:25 AM,61.7,61.7,100,30.04,10.0,Calm,Calm,-,N/A,,Clear,0,2013-09-05 07:25:00
3:45 AM,61.7,61.7,100,30.04,10.0,Calm,Calm,-,N/A,,Clear,0,2013-09-05 07:45:00
4:05 AM,61.7,61.7,100,30.03,10.0,Calm,Calm,-,N/A,,Clear,0,2013-09-05 08:05:00
4:25 AM,61.2,61.2,100,30.04,7.0,Calm,Calm,-,N/A,,Clear,0,2013-09-05 08:25:00
4:45 AM,61.2,61.2,100,30.04,10.0,Calm,Calm,-,N/A,,Clear,0,2013-09-05 08:45:00
5:05 AM,61.7,61.7,100,30.04,10.0,Calm,Calm,-,N/A,,Clear,0,2013-09-05 09:05:00
5:25 AM,61.0,61.0,100,30.04,10.0,Calm,Calm,-,N/A,,Clear,0,2013-09-05 09:25:00
5:45 AM,61.2,61.2,100,30.04,10.0,Calm,Calm,-,N/A,,Clear,0,2013-09-05 09:45:00
6:05 AM,61.0,61.0,100,30.04,10.0,Calm,Calm,-,N/A,,Clear,0,2013-09-05 10:05:00
6:25 AM,60.8,60.8,100,30.04,10.0,Calm,Calm,-,N/A,,Clear,0,2013-09-05 10:25:00
6:45 AM,60.3,60.3,100,30.05,10.0,Calm,Calm,-,N/A,,Clear,0,2013-09-05 10:45:00
7:05 AM,60.1,60.1,100,30.05,10.0,Calm,Calm,-,N/A,,Clear,0,2013-09-05 11:05:00
7:25 AM,61.2,61.2,100,30.05,10.0,Calm,Calm,-,N/A,,Clear,0,2013-09-05 11:25:00
7:45 AM,62.8,62.1,97,30.05,10.0,Calm,Calm,-,N/A,,Clear,0,2013-09-05 11:45:00
8:05 AM,64.8,63.0,94,30.05,10.0,Calm,Calm,-,N/A,,Clear,0,2013-09-05 12:05:00
8:25 AM,68.4,64.6,88,30.04,10.0,Calm,Calm,-,N/A,,Clear,0,2013-09-05 12:25:00
8:45 AM,75.2,60.3,60,30.04,10.0,WSW,6.9,-,N/A,,Clear,250,2013-09-05 12:45:00
9:05 AM,77.2,59.7,55,30.04,10.0,West,4.6,-,N/A,,Clear,260,2013-09-05 13:05:00
9:25 AM,77.9,59.4,53,30.05,10.0,West,6.9,-,N/A,,Clear,270,2013-09-05 13:25:00
9:45 AM,78.4,59.7,52,30.05,10.0,WNW,6.9,-,N/A,,Clear,290,2013-09-05 13:45:00
10:05 AM,79.5,59.5,50,30.05,10.0,West,6.9,-,N/A,,Clear,270,2013-09-05 14:05:00
10:25 AM,80.6,59.9,49,30.05,10.0,WSW,9.2,-,N/A,,Clear,250,2013-09-05 14:25:00
10:45 AM,80.8,59.7,49,30.05,10.0,WNW,8.1,-,N/A,,Clear,300,2013-09-05 14:45:00
11:05 AM,81.7,60.3,48,30.06,10.0,WNW,10.4,-,N/A,,Clear,300,2013-09-05 15:05:00
11:25 AM,81.5,61.0,50,30.06,10.0,NNW,9.2,19.6,N/A,,Clear,330,2013-09-05 15:25:00
11:45 AM,82.0,61.2,49,30.05,10.0,West,10.4,16.1,N/A,,Clear,280,2013-09-05 15:45:00
12:05 PM,82.6,61.3,48,30.05,10.0,West,10.4,17.3,N/A,,Clear,280,2013-09-05 16:05:00
12:25 PM,83.3,61.5,48,30.05,10.0,WNW,12.7,16.1,N/A,,Clear,290,2013-09-05 16:25:00
12:45 PM,83.5,61.9,48,30.04,10.0,NNW,9.2,16.1,N/A,,Scattered Clouds,330,2013-09-05 16:45:00
1:05 PM,82.8,62.2,50,30.04,10.0,WSW,5.8,-,N/A,,Mostly Cloudy,240,2013-09-05 17:05:00
1:25 PM,82.6,62.1,50,30.04,10.0,NW,10.4,-,N/A,,Overcast,310,2013-09-05 17:25:00
1:50 PM,83.3,62.2,49,30.03,10.0,North,8.1,-,N/A,,Overcast,350,2013-09-05 17:50:00
2:10 PM,83.8,61.9,47,30.03,10.0,NW,9.2,-,N/A,,Mostly Cloudy,320,2013-09-05 18:10:00
2:30 PM,84.6,61.7,46,30.02,10.0,NW,9.2,-,N/A,,Mostly Cloudy,310,2013-09-05 18:30:00
2:50 PM,84.7,61.2,45,30.02,10.0,West,11.5,17.3,N/A,,Mostly Cloudy,280,2013-09-05 18:50:00
3:10 PM,85.3,58.8,41,30.02,10.0,NW,11.5,18.4,N/A,,Scattered Clouds,310,2013-09-05 19:10:00
3:30 PM,85.6,57.7,39,30.02,10.0,NNW,9.2,20.7,N/A,,Scattered Clouds,330,2013-09-05 19:30:00
3:50 PM,84.6,57.0,39,30.02,10.0,WNW,11.5,19.6,N/A,,Scattered Clouds,300,2013-09-05 19:50:00
4:10 PM,82.9,60.8,47,30.01,10.0,North,9.2,-,N/A,,Scattered Clouds,360,2013-09-05 20:10:00
4:30 PM,84.7,58.1,40,30.02,10.0,NW,11.5,18.4,N/A,,Clear,310,2013-09-05 20:30:00
4:50 PM,84.6,57.2,39,30.01,10.0,NW,9.2,-,N/A,,Clear,310,2013-09-05 20:50:00
5:10 PM,83.8,57.2,40,30.02,10.0,NW,5.8,-,N/A,,Scattered Clouds,310,2013-09-05 21:10:00
5:30 PM,82.9,57.6,42,30.02,10.0,NNW,6.9,-,N/A,,Mostly Cloudy,330,2013-09-05 21:30:00
5:50 PM,81.5,59.0,46,30.03,10.0,NW,8.1,-,N/A,,Scattered Clouds,320,2013-09-05 21:50:00
6:10 PM,82.4,59.2,45,30.03,10.0,NW,4.6,-,N/A,,Mostly Cloudy,320,2013-09-05 22:10:00
6:30 PM,81.5,58.5,45,30.03,10.0,NNW,6.9,-,N/A,,Scattered Clouds,330,2013-09-05 22:30:00
6:50 PM,81.5,54.9,40,30.04,10.0,NW,6.9,-,N/A,,Clear,310,2013-09-05 22:50:00
7:10 PM,80.6,54.3,40,30.04,10.0,NW,5.8,-,N/A,,Clear,320,2013-09-05 23:10:00
7:30 PM,79.5,53.2,40,30.04,10.0,NW,6.9,-,N/A,,Clear,320,2013-09-05 23:30:00
7:50 PM,78.8,53.2,41,30.05,10.0,NNW,4.6,-,N/A,,Clear,330,2013-09-05 23:50:00
8:10 PM,77.0,52.7,43,30.07,10.0,NW,8.1,-,N/A,,Clear,320,2013-09-06 00:10:00
8:30 PM,76.3,52.0,43,30.07,10.0,North,4.6,-,N/A,,Clear,360,2013-09-06 00:30:00
8:50 PM,76.1,50.2,40,30.08,10.0,NW,8.1,-,N/A,,Clear,320,2013-09-06 00:50:00
9:10 PM,74.1,51.1,44,30.09,10.0,North,4.6,-,N/A,,Clear,360,2013-09-06 01:10:00
9:30 PM,72.9,51.3,47,30.09,10.0,North,4.6,-,N/A,,Clear,350,2013-09-06 01:30:00
9:50 PM,72.3,50.9,47,30.10,10.0,North,5.8,-,N/A,,Clear,350,2013-09-06 01:50:00
10:10 PM,71.8,50.0,46,30.11,10.0,NNW,4.6,-,N/A,,Clear,340,2013-09-06 02:10:00
10:30 PM,71.4,50.9,48,30.12,10.0,North,3.5,-,N/A,,Mostly Cloudy,10,2013-09-06 02:30:00
10:50 PM,70.7,49.8,48,30.12,10.0,NNW,3.5,-,N/A,,Scattered Clouds,330,2013-09-06 02:50:00
11:10 PM,67.8,52.5,58,30.12,10.0,North,3.5,-,N/A,,Clear,350,2013-09-06 03:10:00
11:30 PM,66.7,53.8,63,30.13,10.0,Calm,Calm,-,N/A,,Clear,0,2013-09-06 03:30:00
11:50 PM,64.9,54.9,70,30.13,10.0,Calm,Calm,-,N/A,,Clear,0,2013-09-06 03:50:00